createdAt,value
2017-06-25T10:12:10.341Z,15.42
2017-06-25T10:14:38.826Z,16.38
2017-06-25T10:17:05.997Z,18.42
2017-06-25T10:19:32.918Z,16.83
2017-06-25T10:22:00.136Z,15.98
2017-06-25T10:24:27.267Z,16.84
2017-06-25T10:26:54.336Z,15.24
2017-06-25T10:29:21.995Z,16.38
2017-06-25T10:31:49.535Z,17.20
2017-06-25T10:34:17.365Z,16.30
2017-06-25T10:36:44.429Z,16.60
2017-06-25T10:39:11.946Z,18.42
2017-06-25T10:41:39.479Z,17.42
2017-06-25T10:44:06.327Z,18.28
2017-06-25T10:46:33.438Z,18.80
2017-06-25T10:49:02.316Z,18.28
2017-06-25T10:51:29.685Z,19.40
2017-06-25T10:53:56.939Z,18.03
2017-06-25T10:56:24.533Z,18.23
2017-06-25T10:58:52.245Z,17.53
2017-06-25T11:01:19.439Z,18.33
2017-06-25T11:03:46.656Z,18.72
2017-06-25T11:06:13.800Z,17.90
2017-06-25T11:08:41.374Z,18.67
2017-06-25T11:11:09.492Z,17.63
2017-06-25T11:13:36.872Z,17.62
2017-06-25T11:16:04.036Z,18.08
2017-06-25T11:18:30.874Z,16.20
2017-06-25T11:20:58.018Z,14.58
2017-06-25T11:23:25.221Z,16.27
2017-06-25T11:25:52.668Z,13.08
2017-06-25T11:28:19.495Z,10.25
2017-06-25T11:30:46.824Z,9.53
2017-06-25T11:33:13.914Z,8.43
2017-06-25T11:35:41.128Z,9.47
2017-06-25T11:38:08.557Z,8.83
2017-06-25T11:40:35.624Z,8.95
2017-06-25T11:43:03.252Z,9.40
2017-06-25T11:45:30.601Z,7.77
2017-06-25T11:47:58.613Z,7.98
2017-06-25T11:50:25.766Z,11.35
2017-06-25T11:52:52.828Z,11.17
2017-06-25T11:55:19.914Z,10.10
2017-06-25T11:57:47.021Z,11.23
2017-06-25T12:00:14.454Z,10.62
2017-06-25T12:02:41.608Z,12.22
2017-06-25T12:05:08.791Z,10.80
2017-06-25T12:07:36.278Z,12.15
2017-06-25T12:10:03.782Z,13.05
2017-06-25T12:12:30.938Z,12.52
2017-06-25T12:14:58.112Z,14.60
2017-06-25T12:17:24.973Z,14.72
2017-06-25T12:19:52.928Z,12.40
2017-06-25T12:22:20.887Z,12.48
2017-06-25T12:27:20.023Z,13.53
2017-06-25T12:29:47.168Z,12.60
2017-06-25T12:32:14.910Z,12.17
2017-06-25T12:34:42.031Z,12.40
2017-06-25T12:37:10.001Z,12.08
2017-06-25T12:39:37.037Z,10.32
2017-06-25T12:42:03.882Z,9.48
2017-06-25T12:44:31.367Z,8.58
2017-06-25T12:46:58.410Z,8.78
2017-06-25T12:49:25.430Z,9.98
2017-06-25T12:51:52.870Z,10.06
2017-06-25T12:54:20.009Z,11.98
2017-06-25T12:56:48.120Z,11.60
2017-06-25T12:59:15.604Z,10.30
2017-06-25T13:01:42.613Z,11.32
2017-06-25T13:04:10.385Z,14.20
2017-06-25T13:06:37.554Z,14.70
2017-06-25T13:09:04.408Z,14.16
2017-06-25T13:11:32.355Z,15.38
2017-06-25T13:13:59.486Z,15.92
2017-06-25T13:16:26.745Z,15.88
2017-06-25T13:18:53.801Z,15.30
2017-06-25T13:21:21.186Z,16.96
2017-06-25T13:23:48.310Z,17.04
2017-06-25T13:26:15.344Z,18.54
2017-06-25T13:28:42.679Z,17.72
2017-06-25T13:31:11.074Z,16.95
2017-06-25T13:33:38.931Z,13.50
2017-06-25T13:36:06.438Z,11.13
2017-06-25T13:38:33.844Z,10.92
2017-06-25T13:41:00.638Z,11.67
2017-06-25T13:43:28.084Z,12.77
2017-06-25T13:45:55.240Z,10.67
2017-06-25T13:48:22.671Z,14.42
2017-06-25T13:50:50.439Z,12.07
2017-06-25T13:53:18.317Z,11.98
2017-06-25T13:55:45.506Z,11.48
2017-06-25T13:58:12.832Z,10.05
2017-06-25T14:00:39.992Z,12.10
2017-06-25T14:03:06.993Z,11.48
2017-06-25T14:05:34.433Z,11.92
2017-06-25T14:08:01.515Z,15.22
2017-06-25T14:10:29.664Z,16.48
2017-06-25T14:12:57.138Z,16.22
2017-06-25T14:15:25.104Z,14.52
2017-06-25T14:17:52.266Z,13.45
2017-06-25T14:20:19.674Z,15.87
2017-06-25T14:22:46.891Z,16.58
2017-06-25T14:25:13.667Z,16.95
2017-06-25T14:27:41.114Z,16.87
2017-06-25T14:30:08.091Z,14.34
2017-06-25T14:32:35.092Z,15.50
2017-06-25T14:35:02.888Z,16.27
2017-06-25T14:37:29.890Z,15.55
2017-06-25T14:39:57.677Z,14.72
2017-06-25T14:42:25.072Z,16.27
2017-06-25T14:44:52.494Z,16.73
2017-06-25T14:47:19.595Z,17.70
2017-06-25T14:49:46.919Z,17.15
2017-06-25T14:52:14.053Z,16.05
2017-06-25T14:54:41.084Z,15.82
2017-06-25T14:57:08.867Z,17.05
2017-06-25T14:59:35.938Z,18.03
2017-06-25T15:02:02.760Z,15.38
2017-06-25T15:04:30.181Z,15.72
2017-06-25T15:06:57.344Z,16.15
2017-06-25T15:09:24.331Z,15.25
2017-06-25T15:11:51.700Z,16.45
2017-06-25T15:14:18.723Z,17.15
2017-06-25T15:16:45.883Z,18.32
2017-06-25T15:19:13.155Z,16.77
2017-06-25T15:21:40.257Z,17.68
2017-06-25T15:24:07.100Z,21.30
2017-06-25T15:26:34.483Z,17.32
2017-06-25T15:29:01.576Z,17.53
2017-06-25T15:31:28.752Z,17.32
2017-06-25T15:33:56.079Z,18.85
2017-06-25T15:36:22.862Z,17.25
2017-06-25T15:38:49.849Z,18.27
2017-06-25T15:41:17.193Z,16.22
2017-06-25T15:43:44.312Z,16.63
2017-06-25T15:46:11.465Z,16.75
2017-06-25T15:48:38.732Z,18.70
2017-06-25T15:51:06.102Z,18.27
2017-06-25T15:53:33.137Z,17.83
2017-06-25T15:56:00.457Z,15.83
2017-06-25T15:58:27.622Z,20.50
2017-06-25T16:00:54.617Z,20.38
2017-06-25T16:03:21.949Z,22.42
2017-06-25T16:05:48.943Z,21.22
2017-06-25T16:08:16.136Z,21.40
2017-06-25T16:10:43.188Z,21.60
2017-06-25T16:13:10.198Z,21.72
2017-06-25T16:15:37.192Z,20.03
2017-06-25T16:18:04.552Z,22.93
2017-06-25T16:20:31.623Z,20.87
2017-06-25T16:23:02.088Z,20.12
2017-06-25T16:28:01.089Z,20.28
2017-06-25T16:30:28.748Z,19.73
2017-06-25T16:32:57.443Z,19.33
2017-06-25T16:37:56.765Z,21.37
2017-06-25T16:40:24.404Z,22.80
2017-06-25T16:42:51.605Z,22.90
2017-06-25T16:50:23.475Z,22.43
2017-06-25T16:52:50.231Z,22.93
2017-06-25T16:55:25.233Z,21.03
2017-06-25T16:57:54.476Z,22.83
2017-06-25T17:08:32.832Z,23.95
2017-06-25T17:19:27.401Z,24.50
2017-06-25T17:22:00.173Z,21.27
2017-06-25T17:35:30.051Z,19.78
2017-06-25T17:40:31.953Z,20.93
2017-06-25T17:56:11.203Z,21.70
2017-06-25T18:01:19.163Z,19.63
2017-06-25T18:06:23.072Z,20.43
2017-06-25T18:11:34.567Z,20.57
2017-06-25T18:27:15.942Z,20.95
2017-06-25T18:29:44.866Z,20.68
2017-06-25T18:37:31.451Z,22.63
2017-06-25T18:59:44.863Z,22.15
2017-06-25T19:04:59.451Z,21.63
2017-06-25T19:07:29.908Z,23.67
2017-06-25T19:13:03.178Z,21.18
2017-06-25T19:15:30.650Z,18.95
2017-06-25T19:17:59.854Z,20.28
2017-06-25T19:22:59.939Z,17.80
2017-06-25T19:33:10.359Z,20.28
2017-06-25T19:35:39.229Z,24.12
2017-06-25T19:45:46.789Z,17.08
2017-06-25T19:51:11.517Z,17.03
2017-06-25T19:56:21.883Z,18.32
2017-06-25T19:58:54.534Z,18.62
2017-06-25T20:09:08.287Z,21.65
2017-06-25T20:14:19.030Z,19.28
2017-06-25T20:19:27.956Z,17.18
2017-06-25T20:24:35.053Z,18.45
2017-06-25T20:27:05.891Z,17.80
2017-06-25T20:32:07.803Z,21.93
2017-06-25T20:37:08.543Z,18.32
2017-06-25T20:39:40.959Z,15.80
2017-06-25T20:42:08.468Z,17.85
2017-06-25T20:44:40.121Z,26.33
2017-06-25T20:47:09.032Z,18.37
2017-06-25T20:57:26.758Z,16.27
2017-06-25T20:59:53.808Z,16.30
2017-06-25T21:02:21.318Z,16.02
2017-06-25T21:15:11.761Z,18.42
2017-06-25T21:22:54.611Z,16.68
2017-06-25T21:25:23.162Z,19.58
2017-06-25T21:27:51.147Z,19.12
2017-06-25T21:32:53.947Z,18.12
2017-06-25T21:35:25.561Z,18.20
2017-06-25T21:37:53.084Z,18.37
2017-06-25T21:40:22.419Z,18.02
2017-06-25T21:42:52.088Z,21.50
2017-06-25T21:45:24.091Z,19.77
2017-06-25T21:47:52.724Z,19.37
2017-06-25T21:50:21.839Z,16.75
2017-06-25T21:52:48.712Z,18.35
2017-06-25T21:55:16.525Z,17.08
2017-06-25T21:57:44.150Z,17.75
2017-06-25T22:00:11.476Z,19.12
2017-06-25T22:02:41.401Z,17.50
2017-06-25T22:05:10.887Z,18.08
2017-06-25T22:07:41.255Z,18.73
2017-06-25T22:10:09.108Z,17.30
2017-06-25T22:12:39.345Z,16.28
2017-06-25T22:15:07.274Z,17.98
2017-06-25T22:17:35.827Z,16.22
2017-06-25T22:20:04.270Z,15.08
2017-06-25T22:22:33.417Z,18.93
2017-06-25T22:25:04.331Z,17.92
2017-06-25T22:27:31.763Z,16.17
2017-06-25T22:32:42.160Z,15.37
2017-06-25T22:35:14.619Z,15.88
2017-06-25T22:37:45.459Z,14.57
2017-06-25T22:42:48.886Z,15.25
2017-06-25T22:45:19.183Z,15.07
2017-06-25T22:47:46.877Z,13.72
2017-06-25T22:50:14.783Z,17.90
2017-06-25T22:52:43.339Z,16.05
2017-06-25T22:55:11.360Z,14.58
2017-06-25T23:00:15.654Z,13.23
2017-06-25T23:02:45.623Z,14.48
2017-06-25T23:05:13.362Z,14.53
2017-06-25T23:07:43.048Z,14.67
2017-06-25T23:10:12.207Z,15.52
2017-06-25T23:12:42.767Z,17.40
2017-06-25T23:15:11.350Z,14.97
2017-06-25T23:17:46.946Z,15.33
2017-06-25T23:20:16.365Z,17.13
2017-06-25T23:22:43.205Z,15.55
2017-06-25T23:25:10.835Z,14.95
2017-06-25T23:27:39.281Z,16.30
2017-06-25T23:30:10.140Z,17.07
2017-06-25T23:32:38.427Z,17.40
2017-06-25T23:35:06.849Z,19.20
2017-06-25T23:37:34.977Z,17.62
2017-06-25T23:40:03.689Z,16.77
2017-06-25T23:42:35.634Z,17.73
2017-06-25T23:45:04.726Z,16.65
2017-06-25T23:47:34.171Z,22.22
2017-06-25T23:50:02.603Z,18.85
2017-06-25T23:52:33.039Z,19.27
2017-06-25T23:55:05.130Z,17.12
